Time;durP1;ratioP1;P1;durP2;ratioP2;P2;SDS_P1;SDS_P2;PMS_P1;PMS_P2;Temp;Humidity;BMP_temperature;BMP_pressure;BME280_temperature;BME280_humidity;BME280_pressure;Samples;Min_cycle;Max_cycle;Signal;HPM_P1;HPM_P2
2022/04/03 00:02:15;;;;;;;5.10;2.90;;;;;;;;;;4420325;32;20358;-75
2022/04/03 00:04:40;;;;;;;;;;;;;;;;;;4435904;32;20071;-76
2022/04/03 00:07:05;;;;;;;8.02;3.20;;;;;;;;;;4421475;32;19974;-76
2022/04/03 00:09:30;;;;;;;;;;;;;;;;;;4409042;32;20079;-76
2022/04/03 00:11:55;;;;;;;6.45;2.58;;;;;;;;;;4435490;32;19976;-76
2022/04/03 00:14:21;;;;;;;;;;;;;;;;;;4435562;32;20125;-74
2022/04/03 00:16:46;;;;;;;7.28;3.22;;;;;;;;;;4434691;32;19947;-75
2022/04/03 00:19:11;;;;;;;;;;;;;;;;;;4435232;32;20168;-75
2022/04/03 00:21:36;;;;;;;5.93;3.12;;;;;;;;;;4435441;32;20220;-75
2022/04/03 00:24:01;;;;;;;;;;;;;;;;;;4435576;32;20048;-76
2022/04/03 00:26:26;;;;;;;8.30;5.03;;;;;;;;;;4420453;32;19952;-76
2022/04/03 00:28:51;;;;;;;;;;;;;;;;;;4437206;32;20074;-75
2022/04/03 00:31:17;;;;;;;7.25;4.10;;;;;;;;;;4437687;32;19950;-77
2022/04/03 00:33:43;;;;;;;;;;;;;;;;;;4425428;32;20192;-76
2022/04/03 00:36:08;;;;;;;7.80;3.00;;;;;;;;;;4422875;32;19933;-76
2022/04/03 00:38:36;;;;;;;;;;;;;;;;;;4590358;27;20069;-87
2022/04/03 00:41:07;;;;;;;6.50;3.33;;;;;;;;;;4424333;32;19941;-86
2022/04/03 00:43:35;;;;;;;9.00;3.55;;;;;;;;;;4423686;32;20022;-87
2022/04/03 00:46:08;;;;;;;9.55;2.83;;;;;;;;;;4438760;32;20064;-87
2022/04/03 00:48:33;;;;;;;4.68;3.08;;;;;;;;;;4424349;32;20071;-87
2022/04/03 00:50:58;;;;;;;;;;;;;;;;;;4437179;32;20021;-87
2022/04/03 00:53:26;;;;;;;6.95;3.80;;;;;;;;;;4438880;32;19980;-85
2022/04/03 00:55:51;;;;;;;10.23;2.97;;;;;;;;;;4422927;32;20144;-87
2022/04/03 00:58:16;;;;;;;;;;;;;;;;;;4423752;32;20014;-87
2022/04/03 01:00:44;;;;;;;6.62;3.30;;;;;;;;;;4422660;32;19956;-86
2022/04/03 01:03:09;;;;;;;8.18;3.95;;;;;;;;;;4422158;32;20140;-85
2022/04/03 01:05:36;;;;;;;;;;;;;;;;;;4423081;32;20086;-85
2022/04/03 01:08:03;;;;;;;7.18;3.50;;;;;;;;;;4422434;32;19989;-86
2022/04/03 01:10:38;;;;;;;5.57;2.83;;;;;;;;;;4429461;32;20026;-86
2022/04/03 01:13:05;;;;;;;6.55;3.92;;;;;;;;;;4438153;32;20026;-86
2022/04/03 01:15:33;;;;;;;8.00;3.25;;;;;;;;;;4438927;32;20041;-87
2022/04/03 01:17:58;;;;;;;7.35;3.70;;;;;;;;;;4435095;32;20023;-87
2022/04/03 01:20:24;;;;;;;;;;;;;;;;;;4422709;32;20057;-88
2022/04/03 01:22:49;;;;;;;9.40;3.75;;;;;;;;;;4422336;32;19991;-87
2022/04/03 01:25:15;;;;;;;;;;;;;;;;;;4423151;32;20151;-88
2022/04/03 01:27:40;;;;;;;8.90;3.85;;;;;;;;;;4420786;32;19929;-86
2022/04/03 01:30:05;;;;;;;;;;;;;;;;;;4422320;32;20319;-87
2022/04/03 01:32:31;;;;;;;8.10;3.42;;;;;;;;;;4422283;32;19951;-87
2022/04/03 01:34:56;;;;;;;;;;;;;;;;;;4422526;32;20053;-87
2022/04/03 01:37:24;;;;;;;6.32;3.47;;;;;;;;;;4422303;32;19970;-86
2022/04/03 01:39:50;;;;;;;7.20;4.20;;;;;;;;;;4432242;32;20042;-85
2022/04/03 01:42:15;;;;;;;;;;;;;;;;;;4424397;32;20064;-86
2022/04/03 01:44:41;;;;;;;8.30;4.00;;;;;;;;;;4437492;32;19933;-87
2022/04/03 01:47:06;;;;;;;;;;;;;;;;;;4423347;32;20025;-87
2022/04/03 01:49:31;;;;;;;9.27;3.80;;;;;;;;;;4422903;32;19940;-86
2022/04/03 01:51:56;;;;;;;;;;;;;;;;;;4431758;32;20171;-87
2022/04/03 01:54:22;;;;;;;11.15;4.15;;;;;;;;;;4421873;32;19974;-86
2022/04/03 01:56:47;;;;;;;;;;;;;;;;;;4422157;32;20140;-86
2022/04/03 01:59:12;;;;;;;5.85;4.30;;;;;;;;;;4409840;32;19979;-87
2022/04/03 02:01:37;;;;;;;;;;;;;;;;;;4423479;32;20510;-86
2022/04/03 02:04:03;;;;;;;7.72;4.85;;;;;;;;;;4414142;32;19983;-86
2022/04/03 02:06:28;;;;;;;;;;;;;;;;;;4422152;32;20022;-86
2022/04/03 02:08:54;;;;;;;9.26;4.26;;;;;;;;;;4421791;32;19937;-86
2022/04/03 02:11:19;;;;;;;;;;;;;;;;;;4422314;32;20488;-86
2022/04/03 02:13:55;;;;;;;8.56;4.64;;;;;;;;;;4421409;32;19951;-85
2022/04/03 02:16:23;;;;;;;5.97;4.07;;;;;;;;;;4408612;32;20056;-86
2022/04/03 02:18:49;;;;;;;9.35;4.40;;;;;;;;;;4421554;32;20030;-86
2022/04/03 02:21:14;;;;;;;;;;;;;;;;;;4421105;32;20022;-86
2022/04/03 02:23:39;;;;;;;10.48;4.70;;;;;;;;;;4421602;32;19945;-86
2022/04/03 02:26:14;;;;;;;;;;;;;;;;;;4422286;32;20445;-86
2022/04/03 02:28:47;;;;;;;6.95;4.47;;;;;;;;;;4436479;32;20370;-86
2022/04/03 02:31:14;;;;;;;7.68;4.62;;;;;;;;;;4437094;32;20026;-85
2022/04/03 02:33:44;;;;;;;11.57;4.28;;;;;;;;;;4434966;32;20048;-86
2022/04/03 02:36:18;;;;;;;7.15;3.90;;;;;;;;;;4437300;32;20021;-86
2022/04/03 02:38:44;;;;;;;6.65;4.05;;;;;;;;;;4436090;32;20034;-85
2022/04/03 02:41:12;;;;;;;;;;;;;;;;;;4437207;32;20026;-85
2022/04/03 02:43:38;;;;;;;6.55;4.72;;;;;;;;;;4436663;32;19940;-86
2022/04/03 02:46:03;;;;;;;;;;;;;;;;;;4437112;32;20073;-86
2022/04/03 02:48:28;;;;;;;7.78;3.97;;;;;;;;;;4433635;32;19945;-86
2022/04/03 02:50:53;;;;;;;;;;;;;;;;;;4421929;32;20178;-86
2022/04/03 02:53:18;;;;;;;8.98;4.70;;;;;;;;;;4421001;32;19932;-86
2022/04/03 02:55:44;;;;;;;;;;;;;;;;;;4420211;32;20034;-86
2022/04/03 02:58:09;;;;;;;11.07;5.18;;;;;;;;;;4420937;32;19977;-86
2022/04/03 03:00:35;;;;;;;;;;;;;;;;;;4433069;32;20127;-86
2022/04/03 03:03:00;;;;;;;6.55;3.83;;;;;;;;;;4422630;32;19952;-86
2022/04/03 03:05:28;;;;;;;;;;;;;;;;;;4436377;32;20029;-86
2022/04/03 03:07:53;;;;;;;7.87;4.10;;;;;;;;;;4436298;32;19983;-87
2022/04/03 03:10:19;;;;;;;;;;;;;;;;;;4422647;32;20421;-86
2022/04/03 03:12:46;;;;;;;8.48;4.65;;;;;;;;;;4437224;32;20216;-86
2022/04/03 03:15:11;;;;;;;8.02;4.90;;;;;;;;;;4426679;32;20029;-88
2022/04/03 03:17:37;;;;;;;;;;;;;;;;;;4422327;32;20054;-86
2022/04/03 03:20:02;;;;;;;9.77;5.35;;;;;;;;;;4415015;32;19941;-86
2022/04/03 03:22:27;;;;;;;;;;;;;;;;;;4421205;32;20055;-86
2022/04/03 03:24:53;;;;;;;11.80;5.15;;;;;;;;;;4428633;32;20006;-86
2022/04/03 03:27:18;;;;;;;;;;;;;;;;;;4436186;32;20021;-85
2022/04/03 03:29:43;;;;;;;7.03;4.25;;;;;;;;;;4435918;32;20002;-86
2022/04/03 03:32:09;;;;;;;;;;;;;;;;;;4422610;32;20347;-86
2022/04/03 03:34:34;;;;;;;5.78;3.75;;;;;;;;;;4422007;32;19955;-86
2022/04/03 03:37:00;;;;;;;;;;;;;;;;;;4436454;32;20344;-86
2022/04/03 03:39:27;;;;;;;6.72;4.43;;;;;;;;;;4422217;32;19951;-85
2022/04/03 03:41:54;;;;;;;5.90;3.90;;;;;;;;;;4421929;32;20025;-88
2022/04/03 03:44:19;;;;;;;8.60;4.12;;;;;;;;;;4422291;32;20017;-86
2022/04/03 03:46:44;;;;;;;;;;;;;;;;;;4429945;32;20075;-86
2022/04/03 03:49:14;;;;;;;9.13;4.37;;;;;;;;;;4421161;32;19982;-86
2022/04/03 03:51:39;;;;;;;11.15;4.40;;;;;;;;;;4419934;32;20022;-86
2022/04/03 03:54:12;;;;;;;;;;;;;;;;;;4421272;32;20060;-86
2022/04/03 03:56:37;;;;;;;7.85;3.83;;;;;;;;;;4421383;32;19943;-86
2022/04/03 03:59:05;;;;;;;;;;;;;;;;;;4421332;32;20434;-85
2022/04/03 04:01:30;;;;;;;8.60;4.53;;;;;;;;;;4421623;32;19937;-86
2022/04/03 04:03:55;;;;;;;;;;;;;;;;;;4424532;32;20053;-86
2022/04/03 04:06:21;;;;;;;6.40;4.20;;;;;;;;;;4433683;32;19933;-84
2022/04/03 04:08:48;;;;;;;;;;;;;;;;;;4449172;32;20129;-84
2022/04/03 04:11:14;;;;;;;8.32;4.35;;;;;;;;;;4435295;32;19986;-84
2022/04/03 04:13:39;;;;;;;;;;;;;;;;;;4447671;32;20362;-85
2022/04/03 04:16:05;;;;;;;10.40;4.80;;;;;;;;;;4432637;32;19978;-85
2022/04/03 04:18:32;;;;;;;;;;;;;;;;;;4431778;32;20419;-84
2022/04/03 04:20:57;;;;;;;9.38;5.20;;;;;;;;;;4430876;32;19958;-85
2022/04/03 04:23:23;;;;;;;;;;;;;;;;;;4431856;32;20500;-86
2022/04/03 04:25:48;;;;;;;10.85;5.68;;;;;;;;;;4431939;32;19961;-86
2022/04/03 04:28:16;;;;;;;;;;;;;;;;;;4431848;32;20390;-86
2022/04/03 04:30:44;;;;;;;11.05;6.35;;;;;;;;;;4431984;32;19942;-86
2022/04/03 04:33:09;;;;;;;12.10;5.80;;;;;;;;;;4430067;32;20057;-86
2022/04/03 04:35:35;;;;;;;;;;;;;;;;;;4429106;32;20025;-86
2022/04/03 04:38:00;;;;;;;7.57;5.60;;;;;;;;;;4438556;32;19996;-86
2022/04/03 04:40:25;;;;;;;;;;;;;;;;;;4424392;32;20435;-86
2022/04/03 04:42:51;;;;;;;7.60;5.66;;;;;;;;;;4438003;32;19979;-86
2022/04/03 04:45:16;;;;;;;;;;;;;;;;;;4438263;32;20026;-85
2022/04/03 04:47:42;;;;;;;9.95;5.05;;;;;;;;;;4424237;32;19967;-86
2022/04/03 04:50:09;;;;;;;;;;;;;;;;;;4438253;32;20458;-85
2022/04/03 04:52:34;;;;;;;;;;;;;;;;;;4438626;32;19941;-85
2022/04/03 04:54:59;;;;;;;13.66;4.96;;;;;;;;;;4424504;32;20235;-85
2022/04/03 04:57:24;;;;;;;;;;;;;;;;;;4437984;32;20025;-84
2022/04/03 04:59:50;;;;;;;10.46;5.60;;;;;;;;;;4437525;32;19962;-84
2022/04/03 05:02:15;;;;;;;;;;;;;;;;;;4438542;32;20034;-85
2022/04/03 05:04:40;;;;;;;8.40;4.68;;;;;;;;;;4438104;32;19978;-84
2022/04/03 05:07:05;;;;;;;;;;;;;;;;;;4438120;32;20405;-84
2022/04/03 05:09:31;;;;;;;12.30;5.16;;;;;;;;;;4418807;32;19972;-85
2022/04/03 05:11:57;;;;;;;;;;;;;;;;;;4422860;32;20030;-84
2022/04/03 05:14:22;;;;;;;11.00;6.18;;;;;;;;;;4422102;32;19971;-85
2022/04/03 05:16:47;;;;;;;;;;;;;;;;;;4422955;32;20143;-84
2022/04/03 05:19:13;;;;;;;10.25;6.20;;;;;;;;;;4408135;32;20518;-85
2022/04/03 05:21:38;;;;;;;;;;;;;;;;;;4422701;32;20107;-85
2022/04/03 05:24:04;;;;;;;12.88;7.03;;;;;;;;;;4422479;32;19937;-85
2022/04/03 05:26:29;;;;;;;;;;;;;;;;;;4422680;32;20412;-84
2022/04/03 05:28:55;;;;;;;10.57;6.37;;;;;;;;;;4408319;32;19972;-84
2022/04/03 05:31:20;;;;;;;;;;;;;;;;;;4422276;32;20034;-85
2022/04/03 05:33:45;;;;;;;12.05;5.90;;;;;;;;;;4407995;32;20027;-84
2022/04/03 05:36:11;;;;;;;;;;;;;;;;;;4422517;32;20030;-84
2022/04/03 05:38:36;;;;;;;13.38;7.07;;;;;;;;;;4407962;32;19970;-85
2022/04/03 05:41:01;;;;;;;;;;;;;;;;;;4422197;32;20324;-85
2022/04/03 05:43:27;;;;;;;11.73;6.15;;;;;;;;;;4421626;32;20236;-84
2022/04/03 05:45:52;;;;;;;;;;;;;;;;;;4422365;32;20056;-85
2022/04/03 05:48:17;;;;;;;12.50;6.32;;;;;;;;;;4408304;32;19937;-84
2022/04/03 05:50:43;;;;;;;;;;;;;;;;;;4408088;32;20284;-85
2022/04/03 05:53:10;;;;;;;10.45;6.00;;;;;;;;;;4421941;32;19984;-84
2022/04/03 05:55:36;;;;;;;10.70;6.20;;;;;;;;;;4421831;32;20396;-84
2022/04/03 05:58:01;;;;;;;;;;;;;;;;;;4422240;32;20030;-85
2022/04/03 06:00:26;;;;;;;14.55;6.85;;;;;;;;;;4421500;32;19937;-85
2022/04/03 06:02:51;;;;;;;;;;;;;;;;;;4422696;32;20117;-85
2022/04/03 06:05:17;;;;;;;16.44;5.80;;;;;;;;;;4422156;32;19929;-85
2022/04/03 06:07:42;;;;;;;;;;;;;;;;;;4420821;32;20316;-85
2022/04/03 06:10:08;;;;;;;10.85;5.37;;;;;;;;;;4420446;32;19941;-85
2022/04/03 06:12:33;;;;;;;;;;;;;;;;;;4421602;32;20072;-85
2022/04/03 06:14:59;;;;;;;12.27;5.12;;;;;;;;;;4420719;32;19933;-85
2022/04/03 06:17:24;;;;;;;;;;;;;;;;;;4421938;32;20034;-85
2022/04/03 06:19:50;;;;;;;10.07;5.65;;;;;;;;;;4420801;32;19951;-87
2022/04/03 06:22:15;;;;;;;;;;;;;;;;;;4421823;32;20129;-88
2022/04/03 06:24:40;;;;;;;8.52;4.78;;;;;;;;;;4421515;32;19937;-85
2022/04/03 06:27:05;;;;;;;;;;;;;;;;;;4422397;32;20130;-86
2022/04/03 06:29:31;;;;;;;9.65;5.35;;;;;;;;;;4421674;32;20354;-86
2022/04/03 06:31:56;;;;;;;;;;;;;;;;;;4421796;32;20159;-86
2022/04/03 06:34:21;;;;;;;11.93;4.87;;;;;;;;;;4420109;32;19982;-86
2022/04/03 06:36:46;;;;;;;;;;;;;;;;;;4421307;32;20197;-86
2022/04/03 06:39:14;;;;;;;8.88;5.47;;;;;;;;;;4420333;32;19993;-85
2022/04/03 06:41:39;;;;;;;11.12;5.10;;;;;;;;;;4412087;32;20034;-85
2022/04/03 06:44:12;;;;;;;;;;;;;;;;;;4422086;32;20450;-86
2022/04/03 06:46:39;;;;;;;15.43;5.40;;;;;;;;;;4408071;32;19937;-86
2022/04/03 06:49:08;;;;;;;10.18;4.50;;;;;;;;;;4420327;32;20087;-86
2022/04/03 06:51:33;;;;;;;7.62;4.70;;;;;;;;;;4423663;32;20049;-87
2022/04/03 06:53:58;;;;;;;;;;;;;;;;;;4434902;32;20082;-87
2022/04/03 06:56:24;;;;;;;5.78;4.22;;;;;;;;;;4436889;32;20008;-87
2022/04/03 06:58:49;;;;;;;;;;;;;;;;;;4436225;32;20072;-86
2022/04/03 07:01:15;;;;;;;10.07;4.72;;;;;;;;;;4428842;32;19966;-87
2022/04/03 07:03:40;;;;;;;;;;;;;;;;;;4434878;32;20029;-86
2022/04/03 07:06:05;;;;;;;9.07;4.07;;;;;;;;;;4438198;32;19932;-86
2022/04/03 07:08:30;;;;;;;;;;;;;;;;;;4436548;32;20030;-85
2022/04/03 07:10:56;;;;;;;10.10;4.82;;;;;;;;;;4430769;32;19937;-87
2022/04/03 07:13:21;;;;;;;;;;;;;;;;;;4437449;32;20030;-86
2022/04/03 07:15:49;;;;;;;7.37;4.37;;;;;;;;;;4424024;32;19947;-85
2022/04/03 07:18:15;;;;;;;7.05;4.00;;;;;;;;;;4423100;32;20623;-86
2022/04/03 07:20:40;;;;;;;;;;;;;;;;;;4429979;32;20041;-89
2022/04/03 07:23:05;;;;;;;7.00;4.47;;;;;;;;;;4431610;32;19967;-86
2022/04/03 07:25:30;;;;;;;;;;;;;;;;;;4430620;32;20348;-87
2022/04/03 07:28:17;;;;;;;6.72;4.00;;;;;;;;;;4422814;32;19952;-87
2022/04/03 07:30:44;;;;;;;5.18;3.80;;;;;;;;;;4436374;32;20078;-87
2022/04/03 07:33:25;;;;;;;7.22;3.67;;;;;;;;;;4436996;32;20088;-86
2022/04/03 07:35:59;;;;;;;7.93;3.90;;;;;;;;;;4423599;32;20059;-86
2022/04/03 07:38:30;;;;;;;11.15;3.78;;;;;;;;;;4440070;32;20077;-89
2022/04/03 07:40:56;;;;;;;11.73;3.78;;;;;;;;;;4419408;32;20151;-88
2022/04/03 07:43:26;;;;;;;;;;;;;;;;;;4411863;32;20413;-89
2022/04/03 07:45:56;;;;;;;8.93;3.92;;;;;;;;;;4440707;32;19933;-90
2022/04/03 07:48:27;;;;;;;10.02;4.40;;;;;;;;;;4438731;32;20120;-90
2022/04/03 07:50:52;;;;;;;8.05;4.12;;;;;;;;;;4410275;32;20086;-88
2022/04/03 07:53:17;;;;;;;;;;;;;;;;;;4425308;32;20026;-91
2022/04/03 07:55:46;;;;;;;7.37;4.57;;;;;;;;;;4436509;32;19980;-88
2022/04/03 07:58:11;;;;;;;6.28;4.18;;;;;;;;;;4425113;32;20025;-88
2022/04/03 08:00:36;;;;;;;;;;;;;;;;;;4425702;32;20074;-89
2022/04/03 08:03:02;;;;;;;7.55;4.03;;;;;;;;;;4438749;32;19932;-89
2022/04/03 08:05:27;;;;;;;;;;;;;;;;;;4425788;32;20147;-90
2022/04/03 08:08:00;;;;;;;6.28;2.78;;;;;;;;;;4427768;32;19979;-89
2022/04/03 08:10:25;;;;;;;5.60;2.72;;;;;;;;;;4440783;32;20036;-87
2022/04/03 08:12:51;;;;;;;;;;;;;;;;;;4455227;32;20025;-90
2022/04/03 08:15:16;;;;;;;7.00;1.80;;;;;;;;;;4452744;32;19937;-88
2022/04/03 08:17:42;;;;;;;5.05;1.90;;;;;;;;;;4426087;32;20094;-88
2022/04/03 08:20:08;;;;;;;;;;;;;;;;;;4440347;32;20467;-87
2022/04/03 08:22:37;;;;;;;3.08;1.75;;;;;;;;;;4439344;32;20406;-88
2022/04/03 08:25:03;;;;;;;5.62;2.53;;;;;;;;;;4438953;32;20064;-86
2022/04/03 08:27:44;;;;;;;3.78;1.95;;;;;;;;;;4425420;32;20022;-90
2022/04/03 08:30:30;;;;;;;4.40;2.30;;;;;;;;;;4425421;32;20022;-90
2022/04/03 08:32:58;;;;;;;5.20;2.10;;;;;;;;;;4440919;32;20407;-89
2022/04/03 08:35:26;;;;;;;4.85;1.80;;;;;;;;;;4425043;32;20054;-89
2022/04/03 08:37:51;;;;;;;3.33;1.90;;;;;;;;;;4424427;32;20017;-88
2022/04/03 08:40:17;;;;;;;3.00;1.90;;;;;;;;;;4424948;32;20033;-88
2022/04/03 08:42:43;;;;;;;;;;;;;;;;;;4424986;32;20049;-85
2022/04/03 08:45:11;;;;;;;3.50;2.20;;;;;;;;;;4439420;32;19932;-88
2022/04/03 08:47:47;;;;;;;3.37;1.87;;;;;;;;;;4424567;32;20026;-88
2022/04/03 08:50:13;;;;;;;7.37;2.83;;;;;;;;;;4425378;32;20082;-84
2022/04/03 08:52:39;;;;;;;4.40;1.98;;;;;;;;;;4426154;32;20435;-87
2022/04/03 08:55:16;;;;;;;7.53;2.20;;;;;;;;;;4439592;32;20057;-87
2022/04/03 08:57:42;;;;;;;4.60;2.78;;;;;;;;;;4439554;32;20034;-87
2022/04/03 09:00:16;;;;;;;;;;;;;;;;;;4439118;32;20026;-87
2022/04/03 09:02:42;;;;;;;3.90;1.73;;;;;;;;;;4425608;32;19937;-88
2022/04/03 09:05:10;;;;;;;;;;;;;;;;;;4440387;32;20134;-88
2022/04/03 09:07:35;;;;;;;5.43;1.55;;;;;;;;;;4426286;32;20331;-84
2022/04/03 09:10:00;;;;;;;;;;;;;;;;;;4440999;32;20052;-88
2022/04/03 09:12:29;;;;;;;4.25;1.60;;;;;;;;;;4427422;32;19937;-89
2022/04/03 09:14:55;;;;;;;3.33;1.55;;;;;;;;;;4442210;32;20168;-89
2022/04/03 09:17:31;;;;;;;7.30;1.87;;;;;;;;;;4428708;32;20100;-88
2022/04/03 09:19:59;;;;;;;5.53;1.42;;;;;;;;;;4445209;32;20042;-88
2022/04/03 09:22:28;;;;;;;8.57;2.12;;;;;;;;;;4437061;32;20057;-88
2022/04/03 09:24:55;;;;;;;4.82;2.35;;;;;;;;;;4454075;32;20079;-88
2022/04/03 09:27:20;;;;;;;4.93;1.40;;;;;;;;;;4441367;32;20060;-88
2022/04/03 09:29:50;;;;;;;;;;;;;;;;;;4440823;32;20026;-88
2022/04/03 09:32:24;;;;;;;7.25;1.35;;;;;;;;;;4453479;32;19986;-88
2022/04/03 09:34:57;;;;;;;5.57;1.40;;;;;;;;;;4440335;32;20014;-87
2022/04/03 09:37:26;;;;;;;3.45;1.20;;;;;;;;;;4428258;32;20061;-88
2022/04/03 09:40:02;;;;;;;3.70;1.48;;;;;;;;;;4430197;32;20046;-86
2022/04/03 09:42:31;;;;;;;3.67;1.55;;;;;;;;;;4423020;32;20018;-88
2022/04/03 09:44:59;;;;;;;4.25;1.35;;;;;;;;;;4422396;32;20044;-88
2022/04/03 09:47:36;;;;;;;4.03;1.65;;;;;;;;;;4409615;32;20080;-87
2022/04/03 09:50:01;;;;;;;;;;;;;;;;;;4422666;32;20045;-90
2022/04/03 09:52:37;;;;;;;2.67;1.60;;;;;;;;;;4422732;32;19938;-88
2022/04/03 09:55:15;;;;;;;5.90;1.80;;;;;;;;;;4422411;32;20415;-88
2022/04/03 09:57:41;;;;;;;9.85;2.08;;;;;;;;;;4420740;32;20034;-88
2022/04/03 10:00:07;;;;;;;;;;;;;;;;;;4420511;32;20030;-88
2022/04/03 10:02:32;;;;;;;7.95;2.12;;;;;;;;;;4419163;32;20326;-87
2022/04/03 10:04:58;;;;;;;;;;;;;;;;;;4418930;32;20057;-87
2022/04/03 10:07:24;;;;;;;6.70;1.90;;;;;;;;;;4418749;32;19995;-88
2022/04/03 10:09:49;;;;;;;;;;;;;;;;;;4417501;32;20097;-87
2022/04/03 10:12:15;;;;;;;7.72;2.22;;;;;;;;;;4415596;32;19972;-88
2022/04/03 10:14:42;;;;;;;6.97;2.10;;;;;;;;;;4415287;32;20026;-88
2022/04/03 10:17:18;;;;;;;6.15;1.83;;;;;;;;;;4414262;32;20026;-88
2022/04/03 10:19:55;;;;;;;4.77;1.60;;;;;;;;;;4413963;32;20018;-88
2022/04/03 10:22:28;;;;;;;8.85;2.00;;;;;;;;;;4411983;32;20115;-88
2022/04/03 10:25:14;;;;;;;7.75;1.90;;;;;;;;;;4409091;32;20022;-89
2022/04/03 10:27:42;;;;;;;8.80;2.10;;;;;;;;;;4409936;32;20014;-88
2022/04/03 10:30:11;;;;;;;4.43;2.00;;;;;;;;;;4409672;32;20090;-89
2022/04/03 10:32:56;;;;;;;5.32;3.10;;;;;;;;;;4407073;32;20093;-88
2022/04/03 10:35:24;;;;;;;2.83;1.60;;;;;;;;;;4408037;32;20022;-89
2022/04/03 10:38:09;;;;;;;4.05;1.80;;;;;;;;;;4406068;32;20052;-88
2022/04/03 10:40:39;;;;;;;3.00;1.30;;;;;;;;;;4430776;32;20129;-89
2022/04/03 10:43:06;;;;;;;4.60;0.93;;;;;;;;;;4438231;32;20057;-88
2022/04/03 10:45:41;;;;;;;8.00;2.45;;;;;;;;;;4423338;32;20068;-90
2022/04/03 10:48:27;;;;;;;5.28;1.50;;;;;;;;;;4438333;32;20022;-88
2022/04/03 10:51:09;;;;;;;5.15;1.20;;;;;;;;;;4423993;32;20389;-89
2022/04/03 10:53:36;;;;;;;6.97;1.27;;;;;;;;;;4437419;32;20034;-88
2022/04/03 10:56:09;;;;;;;3.95;1.05;;;;;;;;;;4437488;32;20111;-90
2022/04/03 10:58:41;;;;;;;2.37;0.90;;;;;;;;;;4437594;32;20419;-89
2022/04/03 11:01:08;;;;;;;3.15;1.00;;;;;;;;;;4423630;32;20037;-89
2022/04/03 11:03:34;;;;;;;2.42;0.90;;;;;;;;;;4432256;32;20095;-86
2022/04/03 11:05:59;;;;;;;;;;;;;;;;;;4423807;32;20046;-89
2022/04/03 11:08:51;;;;;;;1.37;0.88;;;;;;;;;;4422693;32;19973;-88
2022/04/03 11:11:29;;;;;;;1.37;1.02;;;;;;;;;;4420193;32;20121;-88
2022/04/03 11:13:55;;;;;;;2.95;1.10;;;;;;;;;;4422998;32;20363;-90
2022/04/03 11:16:20;;;;;;;;;;;;;;;;;;4422975;32;20059;-89
2022/04/03 11:18:51;;;;;;;2.40;0.93;;;;;;;;;;4437409;32;19932;-88
2022/04/03 11:21:16;;;;;;;1.12;1.00;;;;;;;;;;4413005;32;20144;-87
2022/04/03 11:23:41;;;;;;;;;;;;;;;;;;4421788;32;20082;-86
2022/04/03 11:26:06;;;;;;;4.55;1.70;;;;;;;;;;4417429;32;19956;-87
2022/04/03 11:28:32;;;;;;;;;;;;;;;;;;4423024;32;20128;-89
2022/04/03 11:30:58;;;;;;;3.88;1.14;;;;;;;;;;4422888;32;19936;-88
2022/04/03 11:33:26;;;;;;;6.00;1.15;;;;;;;;;;4422948;32;20030;-89
2022/04/03 11:35:51;;;;;;;3.72;1.20;;;;;;;;;;4417175;32;20047;-88
2022/04/03 11:38:17;;;;;;;;;;;;;;;;;;4422266;32;20336;-87
2022/04/03 11:40:43;;;;;;;2.05;1.45;;;;;;;;;;4407873;32;19979;-89
2022/04/03 11:43:09;;;;;;;;;;;;;;;;;;4418758;32;20022;-89
2022/04/03 11:45:39;;;;;;;3.15;1.33;;;;;;;;;;4420014;32;19964;-90
2022/04/03 11:48:14;;;;;;;2.28;1.08;;;;;;;;;;4421409;32;20057;-83
2022/04/03 11:50:39;;;;;;;3.15;1.30;;;;;;;;;;4421631;32;20363;-83
2022/04/03 11:53:04;;;;;;;;;;;;;;;;;;4435179;32;20025;-85
2022/04/03 11:55:33;;;;;;;3.47;1.48;;;;;;;;;;4429595;32;19929;-84
2022/04/03 11:58:00;;;;;;;2.87;1.37;;;;;;;;;;4414931;32;20101;-84
2022/04/03 12:00:25;;;;;;;5.10;2.03;;;;;;;;;;4421674;32;20096;-85
2022/04/03 12:02:50;;;;;;;;;;;;;;;;;;4435843;32;20026;-85
2022/04/03 12:05:21;;;;;;;5.40;1.48;;;;;;;;;;4432132;32;19941;-85
2022/04/03 12:07:50;;;;;;;2.60;1.12;;;;;;;;;;4406072;32;20101;-83
2022/04/03 12:10:26;;;;;;;3.55;1.52;;;;;;;;;;4426197;32;20490;-84
2022/04/03 12:12:53;;;;;;;3.83;1.57;;;;;;;;;;4429782;32;20097;-85
2022/04/03 12:15:22;;;;;;;1.87;1.05;;;;;;;;;;4420021;32;20121;-86
2022/04/03 12:17:54;;;;;;;2.58;1.00;;;;;;;;;;4424243;32;20415;-86
2022/04/03 12:20:19;;;;;;;2.58;1.10;;;;;;;;;;4418904;32;20382;-84
2022/04/03 12:22:45;;;;;;;;;;;;;;;;;;4422183;32;20030;-85
2022/04/03 12:25:15;;;;;;;2.40;1.40;;;;;;;;;;4438991;32;20340;-85
2022/04/03 12:27:40;;;;;;;3.20;1.08;;;;;;;;;;4438335;32;20033;-86
2022/04/03 12:30:06;;;;;;;;;;;;;;;;;;4438694;32;20030;-85
2022/04/03 12:32:32;;;;;;;7.82;1.58;;;;;;;;;;4437959;32;19932;-87
2022/04/03 12:34:58;;;;;;;3.28;1.42;;;;;;;;;;4438625;32;20121;-86
2022/04/03 12:37:23;;;;;;;;;;;;;;;;;;4424935;32;20026;-84
2022/04/03 12:39:51;;;;;;;1.50;1.00;;;;;;;;;;4422512;32;19940;-83
2022/04/03 12:42:17;;;;;;;1.12;0.80;;;;;;;;;;4422362;32;20167;-80
2022/04/03 12:44:42;;;;;;;;;;;;;;;;;;4408962;32;20030;-81
2022/04/03 12:47:18;;;;;;;1.17;0.98;;;;;;;;;;4419687;32;19974;-81
2022/04/03 12:49:50;;;;;;;1.20;1.10;;;;;;;;;;4428760;32;20099;-82
2022/04/03 12:52:20;;;;;;;3.47;0.90;;;;;;;;;;4408674;32;20030;-80
2022/04/03 12:54:46;;;;;;;3.72;1.15;;;;;;;;;;4422089;32;20438;-83
2022/04/03 12:59:55;;;;;;;2.15;0.95;;;;;;;;;;4437507;32;19948;-81
2022/04/03 13:02:20;;;;;;;;;;;;;;;;;;4438181;32;20327;-80
2022/04/03 13:04:45;;;;;;;2.87;0.90;;;;;;;;;;4437802;32;19933;-78
2022/04/03 13:07:11;;;;;;;;;;;;;;;;;;4436746;32;20117;-82
2022/04/03 13:09:44;;;;;;;2.60;1.00;;;;;;;;;;4425548;32;20337;-83
2022/04/03 13:12:09;;;;;;;1.42;0.80;;;;;;;;;;4422962;32;20079;-81
2022/04/03 13:14:35;;;;;;;1.83;1.00;;;;;;;;;;4421969;32;20033;-81
2022/04/03 13:17:02;;;;;;;;;;;;;;;;;;4422329;32;20027;-81
2022/04/03 13:19:28;;;;;;;10.70;2.12;;;;;;;;;;4407737;32;19982;-82
2022/04/03 13:21:54;;;;;;;3.55;0.98;;;;;;;;;;4395851;32;20022;-81
2022/04/03 13:24:19;;;;;;;;;;;;;;;;;;4408658;32;20099;-81
2022/04/03 13:26:45;;;;;;;4.28;1.00;;;;;;;;;;4408280;32;19964;-81
2022/04/03 13:31:56;;;;;;;4.10;1.00;;;;;;;;;;4429511;32;20054;-80
2022/04/03 13:34:21;;;;;;;2.83;1.10;;;;;;;;;;4435638;32;20426;-79
2022/04/03 13:36:50;;;;;;;;;;;;;;;;;;4436353;32;20064;-81
2022/04/03 13:39:16;;;;;;;2.83;0.90;;;;;;;;;;4435361;32;20300;-80
2022/04/03 13:41:45;;;;;;;1.90;0.77;;;;;;;;;;4435850;32;20071;-82
2022/04/03 13:44:16;;;;;;;2.67;0.70;;;;;;;;;;4436855;32;20045;-81
2022/04/03 13:46:44;;;;;;;4.65;1.20;;;;;;;;;;4435736;32;20013;-79
2022/04/03 13:49:09;;;;;;;2.87;1.40;;;;;;;;;;4437218;32;20348;-76
2022/04/03 13:51:35;;;;;;;2.42;0.73;;;;;;;;;;4437463;32;20021;-80
2022/04/03 13:54:01;;;;;;;;;;;;;;;;;;4437096;32;20335;-80
2022/04/03 13:56:26;;;;;;;4.55;1.15;;;;;;;;;;4436035;32;20351;-81
2022/04/03 13:58:55;;;;;;;2.62;0.80;;;;;;;;;;4437131;32;20059;-80
2022/04/03 14:01:20;;;;;;;1.08;0.90;;;;;;;;;;4436631;32;20034;-78
2022/04/03 14:03:46;;;;;;;;;;;;;;;;;;4437196;32;20433;-80
2022/04/03 14:06:14;;;;;;;3.80;1.00;;;;;;;;;;4436820;32;19932;-81
2022/04/03 14:08:39;;;;;;;2.10;0.90;;;;;;;;;;4425865;32;20375;-82
2022/04/03 14:11:04;;;;;;;;;;;;;;;;;;4436604;32;20045;-81
2022/04/03 14:13:33;;;;;;;4.93;1.10;;;;;;;;;;4436585;32;19933;-80
2022/04/03 14:16:04;;;;;;;11.23;1.60;;;;;;;;;;4422691;32;20017;-81
2022/04/03 14:18:30;;;;;;;3.28;1.20;;;;;;;;;;4436540;32;20123;-80
2022/04/03 14:20:59;;;;;;;3.72;1.40;;;;;;;;;;4436255;32;20060;-80
2022/04/03 14:23:32;;;;;;;4.40;1.60;;;;;;;;;;4436235;32;20408;-80
2022/04/03 14:25:58;;;;;;;4.47;1.20;;;;;;;;;;4436506;32;20093;-78
2022/04/03 14:28:23;;;;;;;;;;;;;;;;;;4436927;32;20398;-78
2022/04/03 14:30:48;;;;;;;2.22;1.00;;;;;;;;;;4437158;32;19937;-80
2022/04/03 14:33:13;;;;;;;;;;;;;;;;;;4422404;32;20087;-80
2022/04/03 14:35:39;;;;;;;1.45;1.30;;;;;;;;;;4436213;32;19950;-79
2022/04/03 14:38:04;;;;;;;;;;;;;;;;;;4436366;32;20120;-80
2022/04/03 14:40:29;;;;;;;1.80;1.12;;;;;;;;;;4436284;32;20318;-81
2022/04/03 14:42:54;;;;;;;;;;;;;;;;;;4436549;32;20163;-80
2022/04/03 14:45:20;;;;;;;2.97;1.60;;;;;;;;;;4435661;32;20270;-80
2022/04/03 14:47:45;;;;;;;;;;;;;;;;;;4436107;32;20022;-81
2022/04/03 14:50:12;;;;;;;1.80;1.00;;;;;;;;;;4436680;32;19941;-81
2022/04/03 14:52:38;;;;;;;2.95;1.30;;;;;;;;;;4421719;32;20033;-80
2022/04/03 14:55:03;;;;;;;;;;;;;;;;;;4436071;32;20091;-79
2022/04/03 14:57:30;;;;;;;3.17;1.08;;;;;;;;;;4435761;32;19944;-79
2022/04/03 14:59:55;;;;;;;3.05;1.30;;;;;;;;;;4435620;32;20167;-78
2022/04/03 15:02:21;;;;;;;;;;;;;;;;;;4436276;32;20416;-80
2022/04/03 15:04:46;;;;;;;1.52;0.90;;;;;;;;;;4435856;32;19966;-79
2022/04/03 15:07:11;;;;;;;;;;;;;;;;;;4436467;32;20451;-79
2022/04/03 15:09:45;;;;;;;5.78;1.35;;;;;;;;;;4435787;32;19974;-79
2022/04/03 15:12:11;;;;;;;4.18;1.00;;;;;;;;;;4436589;32;20081;-79
2022/04/03 15:14:36;;;;;;;;;;;;;;;;;;4435836;32;20317;-80
2022/04/03 15:17:01;;;;;;;4.43;1.52;;;;;;;;;;4435469;32;19963;-78
2022/04/03 15:19:27;;;;;;;;;;;;;;;;;;4434529;32;20128;-79
2022/04/03 15:21:52;;;;;;;2.78;1.27;;;;;;;;;;4436387;32;19943;-81
2022/04/03 15:24:17;;;;;;;;;;;;;;;;;;4435747;32;20125;-80
2022/04/03 15:26:42;;;;;;;4.18;1.77;;;;;;;;;;4434809;32;19937;-79